createdAt,value
2019-06-26T00:00:55.932Z,0.00
2019-06-26T00:01:55.900Z,0.00
2019-06-26T00:03:49.017Z,0.00
2019-06-26T00:04:49.164Z,0.00
2019-06-26T00:06:41.983Z,0.00
2019-06-26T00:07:41.909Z,0.00
2019-06-26T00:09:35.001Z,0.00
2019-06-26T00:10:34.969Z,0.00
2019-06-26T00:12:27.997Z,0.00
2019-06-26T00:13:27.931Z,0.00
2019-06-26T00:15:21.058Z,0.00
2019-06-26T00:16:20.990Z,0.00
2019-06-26T00:18:14.096Z,0.00
2019-06-26T00:19:14.041Z,0.00
2019-06-26T00:21:07.024Z,0.00
2019-06-26T00:22:06.995Z,0.00
2019-06-26T00:24:00.032Z,0.00
2019-06-26T00:24:59.966Z,0.00
2019-06-26T00:26:53.870Z,0.00
2019-06-26T00:27:53.830Z,0.00
2019-06-26T00:29:47.784Z,0.00
2019-06-26T00:30:47.705Z,0.00
2019-06-26T00:32:40.700Z,0.00
2019-06-26T00:33:40.667Z,0.00
2019-06-26T00:35:33.683Z,0.00
2019-06-26T00:36:33.618Z,0.00
2019-06-26T00:38:26.654Z,0.00
2019-06-26T00:39:26.587Z,0.00
2019-06-26T00:41:19.702Z,0.00
2019-06-26T00:42:19.648Z,0.00
2019-06-26T00:44:13.545Z,0.00
2019-06-26T00:45:13.510Z,0.00
2019-06-26T00:47:06.539Z,0.00
2019-06-26T00:48:06.680Z,0.00
2019-06-26T00:49:59.498Z,0.00
2019-06-26T00:50:59.638Z,0.00
2019-06-26T00:52:53.338Z,0.00
2019-06-26T00:53:53.307Z,0.00
2019-06-26T00:55:47.247Z,0.00
2019-06-26T00:56:47.178Z,0.00
2019-06-26T00:58:40.291Z,0.00
2019-06-26T00:59:40.246Z,0.00
2019-06-26T01:01:34.182Z,0.00
2019-06-26T01:02:34.114Z,0.00
2019-06-26T01:04:28.032Z,0.00
2019-06-26T01:05:27.993Z,0.00
2019-06-26T01:07:21.935Z,0.00
2019-06-26T01:08:21.875Z,0.00
2019-06-26T01:10:14.857Z,0.00
2019-06-26T01:11:14.826Z,0.00
2019-06-26T01:13:07.853Z,0.00
2019-06-26T01:14:07.782Z,0.00
2019-06-26T01:16:01.738Z,0.00
2019-06-26T01:17:01.677Z,0.00
2019-06-26T01:18:54.778Z,0.00
2019-06-26T01:19:54.719Z,0.00
2019-06-26T01:21:48.625Z,0.00
2019-06-26T01:22:48.597Z,0.00
2019-06-26T01:24:41.719Z,0.00
2019-06-26T01:25:41.655Z,0.00
2019-06-26T01:27:35.576Z,0.00
2019-06-26T01:28:35.543Z,0.00
2019-06-26T01:30:29.473Z,0.00
2019-06-26T01:31:29.410Z,0.00
2019-06-26T01:33:22.431Z,0.00
2019-06-26T01:34:22.369Z,0.00
2019-06-26T01:36:15.385Z,0.00
2019-06-26T01:37:15.442Z,0.00
2019-06-26T01:39:09.265Z,0.00
2019-06-26T01:40:09.203Z,0.00
2019-06-26T01:42:02.231Z,0.00
2019-06-26T01:43:02.267Z,0.00
2019-06-26T01:44:55.378Z,0.00
2019-06-26T01:45:55.324Z,0.00
2019-06-26T01:47:49.227Z,0.00
2019-06-26T01:48:49.413Z,0.00
2019-06-26T01:50:42.227Z,0.00
2019-06-26T01:51:42.365Z,0.00
2019-06-26T01:53:35.149Z,0.00
2019-06-26T01:54:35.321Z,0.00
2019-06-26T01:56:28.118Z,0.00
2019-06-26T01:57:28.062Z,0.00
2019-06-26T01:59:21.983Z,0.00
2019-06-26T02:00:21.961Z,0.00
2019-06-26T02:02:14.962Z,0.00
2019-06-26T02:03:15.114Z,0.00
2019-06-26T02:05:07.923Z,0.00
2019-06-26T02:06:07.866Z,0.00
2019-06-26T02:08:00.944Z,0.00
2019-06-26T02:09:00.916Z,0.00
2019-06-26T02:10:53.935Z,0.00
2019-06-26T02:11:53.868Z,0.00
2019-06-26T02:13:46.888Z,0.00
2019-06-26T02:14:46.831Z,0.00
2019-06-26T02:16:39.932Z,0.00
2019-06-26T02:17:39.879Z,0.00
2019-06-26T02:19:33.926Z,0.00
2019-06-26T02:20:33.866Z,0.00
2019-06-26T02:22:26.890Z,0.00
2019-06-26T02:23:27.033Z,0.00
2019-06-26T02:25:20.726Z,0.00
2019-06-26T02:26:20.910Z,0.00
2019-06-26T02:28:13.821Z,0.00
2019-06-26T02:29:13.755Z,0.00
2019-06-26T02:31:07.800Z,0.00
2019-06-26T02:32:07.755Z,0.00
2019-06-26T02:34:01.952Z,0.00
2019-06-26T02:35:01.933Z,0.00
2019-06-26T02:36:54.949Z,0.00
2019-06-26T02:37:55.095Z,0.00
2019-06-26T02:39:47.918Z,0.00
2019-06-26T02:40:48.056Z,0.00
2019-06-26T02:42:40.824Z,0.00
2019-06-26T02:43:41.006Z,0.00
2019-06-26T02:45:34.736Z,0.00
2019-06-26T02:46:34.881Z,0.00
2019-06-26T02:48:27.661Z,0.00
2019-06-26T02:49:27.623Z,0.00
2019-06-26T02:51:21.564Z,0.00
2019-06-26T02:52:21.498Z,0.00
2019-06-26T02:54:14.503Z,0.00
2019-06-26T02:55:14.493Z,0.00
2019-06-26T02:57:07.474Z,0.00
2019-06-26T02:58:07.626Z,0.00
2019-06-26T03:00:01.677Z,0.00
2019-06-26T03:01:01.811Z,0.00
2019-06-26T03:02:55.544Z,0.00
2019-06-26T03:03:55.473Z,0.00
2019-06-26T03:05:49.428Z,0.00
2019-06-26T03:06:49.354Z,0.00
2019-06-26T03:08:42.447Z,0.00
2019-06-26T03:09:42.412Z,0.00
2019-06-26T03:11:35.430Z,0.00
2019-06-26T03:12:35.368Z,0.00
2019-06-26T03:14:29.276Z,0.00
2019-06-26T03:15:29.245Z,0.00
2019-06-26T03:17:22.264Z,0.00
2019-06-26T03:18:22.199Z,0.00
2019-06-26T03:20:15.194Z,0.00
2019-06-26T03:21:15.156Z,0.00
2019-06-26T03:23:08.203Z,0.00
2019-06-26T03:24:08.116Z,4.00
2019-06-26T03:26:01.205Z,4.00
2019-06-26T03:27:01.386Z,4.00
2019-06-26T03:28:55.116Z,4.00
2019-06-26T03:29:55.059Z,4.00
2019-06-26T03:31:48.172Z,0.00
2019-06-26T03:32:48.121Z,0.00
2019-06-26T03:34:41.102Z,4.00
2019-06-26T03:35:41.121Z,4.00
2019-06-26T03:37:34.085Z,4.00
2019-06-26T03:38:34.233Z,4.00
2019-06-26T03:40:27.055Z,4.00
2019-06-26T03:41:27.189Z,4.00
2019-06-26T03:43:19.993Z,4.00
2019-06-26T03:44:19.932Z,8.00
2019-06-26T03:46:13.130Z,4.00
2019-06-26T03:47:13.088Z,4.00
2019-06-26T03:49:06.217Z,4.00
2019-06-26T03:50:06.153Z,4.00
2019-06-26T03:51:59.145Z,8.00
2019-06-26T03:52:59.128Z,8.00
2019-06-26T03:54:52.123Z,4.00
2019-06-26T03:55:52.064Z,4.00
2019-06-26T03:57:45.061Z,8.00
2019-06-26T03:58:45.018Z,8.00
2019-06-26T04:00:38.147Z,12.00
2019-06-26T04:01:38.078Z,8.00
2019-06-26T04:03:32.296Z,8.00
2019-06-26T04:04:32.264Z,8.00
2019-06-26T04:06:26.283Z,12.00
2019-06-26T04:07:26.354Z,12.00
2019-06-26T04:09:19.159Z,8.00
2019-06-26T04:10:19.322Z,12.00
2019-06-26T04:12:12.085Z,12.00
2019-06-26T04:13:12.272Z,12.00
2019-06-26T04:15:05.989Z,16.00
2019-06-26T04:16:05.943Z,12.00
2019-06-26T04:17:59.078Z,12.00
2019-06-26T04:18:58.987Z,16.00
2019-06-26T04:20:51.979Z,12.00
2019-06-26T04:21:51.946Z,12.00
2019-06-26T04:23:45.880Z,16.00
2019-06-26T04:24:45.821Z,16.00
2019-06-26T04:26:38.821Z,16.00
2019-06-26T04:27:38.780Z,16.00
2019-06-26T04:29:31.808Z,20.00
2019-06-26T04:30:31.735Z,20.00
2019-06-26T04:32:25.663Z,20.00
2019-06-26T04:33:25.612Z,20.00
2019-06-26T04:35:19.657Z,20.00
2019-06-26T04:36:19.593Z,20.00
2019-06-26T04:38:13.645Z,20.00
2019-06-26T04:39:13.572Z,20.00
2019-06-26T04:41:07.491Z,24.00
2019-06-26T04:42:07.458Z,24.00
2019-06-26T04:44:00.481Z,24.00
2019-06-26T04:45:00.407Z,24.00
2019-06-26T04:46:53.397Z,28.00
2019-06-26T04:47:53.578Z,24.00
2019-06-26T04:49:47.306Z,28.00
2019-06-26T04:50:47.252Z,28.00
2019-06-26T04:52:40.335Z,28.00
2019-06-26T04:53:40.297Z,32.00
2019-06-26T04:55:33.431Z,32.00
2019-06-26T04:56:33.383Z,32.00
2019-06-26T04:58:26.450Z,32.00
2019-06-26T04:59:26.416Z,36.00
2019-06-26T05:01:20.351Z,32.00
2019-06-26T05:02:20.292Z,36.00
2019-06-26T05:04:13.282Z,36.00
2019-06-26T05:05:13.248Z,36.00
2019-06-26T05:07:06.270Z,36.00
2019-06-26T05:08:06.431Z,36.00
2019-06-26T05:09:59.199Z,36.00
2019-06-26T05:10:59.171Z,40.00
2019-06-26T05:12:52.315Z,40.00
2019-06-26T05:13:52.435Z,44.00
2019-06-26T05:15:46.131Z,52.00
2019-06-26T05:16:46.318Z,48.00
2019-06-26T05:18:40.094Z,52.00
2019-06-26T05:19:39.977Z,56.00
2019-06-26T05:21:32.966Z,56.00
2019-06-26T05:22:32.932Z,56.00
2019-06-26T05:24:25.956Z,60.00
2019-06-26T05:25:25.887Z,56.00
2019-06-26T05:27:18.875Z,60.00
2019-06-26T05:28:19.058Z,64.00
2019-06-26T05:30:11.868Z,64.00
2019-06-26T05:31:12.052Z,64.00
2019-06-26T05:33:04.939Z,64.00
2019-06-26T05:34:04.862Z,68.00
2019-06-26T05:35:57.864Z,68.00
2019-06-26T05:36:57.812Z,68.00
2019-06-26T05:38:50.842Z,72.00
2019-06-26T05:39:54.499Z,68.00
2019-06-26T05:41:44.690Z,72.00
2019-06-26T05:42:44.647Z,72.00
2019-06-26T05:44:37.774Z,72.00
2019-06-26T05:45:37.739Z,76.00
2019-06-26T05:47:30.797Z,76.00
2019-06-26T05:48:30.764Z,80.00
2019-06-26T05:50:23.881Z,80.00
2019-06-26T05:51:23.821Z,84.00
2019-06-26T05:53:16.200Z,84.00
2019-06-26T05:54:16.163Z,88.00
2019-06-26T05:56:10.112Z,84.00
2019-06-26T05:57:10.041Z,88.00
2019-06-26T05:59:03.037Z,92.00
2019-06-26T06:00:03.042Z,92.00
2019-06-26T06:01:55.409Z,96.00
2019-06-26T06:02:55.339Z,100.00
2019-06-26T06:04:48.331Z,100.00
2019-06-26T06:05:48.300Z,100.00
2019-06-26T06:07:41.310Z,100.00
2019-06-26T06:08:41.467Z,100.00
2019-06-26T06:10:34.306Z,104.00
2019-06-26T06:11:34.423Z,104.00
2019-06-26T06:13:27.228Z,104.00
2019-06-26T06:14:27.379Z,104.00
2019-06-26T06:16:20.265Z,112.00
2019-06-26T06:17:20.442Z,112.00
2019-06-26T06:19:13.252Z,112.00
2019-06-26T06:20:13.416Z,112.00
2019-06-26T06:22:06.177Z,120.00
2019-06-26T06:23:06.137Z,116.00
2019-06-26T06:24:59.162Z,116.00
2019-06-26T06:25:59.117Z,116.00
2019-06-26T06:27:52.398Z,116.00
2019-06-26T06:28:52.263Z,120.00
2019-06-26T06:30:45.283Z,124.00
2019-06-26T06:31:45.206Z,124.00
2019-06-26T06:33:39.159Z,124.00
2019-06-26T06:34:39.300Z,124.00
2019-06-26T06:36:32.075Z,128.00
2019-06-26T06:37:32.039Z,132.00
2019-06-26T06:39:25.396Z,132.00
2019-06-26T06:40:25.309Z,132.00
2019-06-26T06:42:18.297Z,132.00
2019-06-26T06:43:18.476Z,136.00
2019-06-26T06:45:11.390Z,136.00
2019-06-26T06:46:11.537Z,140.00
2019-06-26T06:48:04.362Z,140.00
2019-06-26T06:49:04.490Z,140.00
2019-06-26T06:50:56.377Z,144.00
2019-06-26T06:51:56.558Z,144.00
2019-06-26T06:53:49.323Z,144.00
2019-06-26T06:54:49.372Z,148.00
2019-06-26T06:56:41.470Z,152.00
2019-06-26T06:57:41.401Z,148.00
2019-06-26T06:59:34.396Z,152.00
2019-06-26T07:00:34.358Z,152.00
2019-06-26T07:02:27.589Z,156.00
2019-06-26T07:03:27.521Z,152.00
2019-06-26T07:05:21.482Z,152.00
2019-06-26T07:06:21.401Z,156.00
2019-06-26T07:08:14.385Z,160.00
2019-06-26T07:09:14.570Z,156.00
2019-06-26T07:11:07.507Z,160.00
2019-06-26T07:12:07.627Z,160.00
2019-06-26T07:14:00.411Z,160.00
2019-06-26T07:15:00.375Z,160.00
2019-06-26T07:16:53.494Z,168.00
2019-06-26T07:17:53.431Z,164.00
2019-06-26T07:19:46.521Z,168.00
2019-06-26T07:20:46.484Z,168.00
2019-06-26T07:22:39.502Z,172.00
2019-06-26T07:23:39.733Z,168.00
2019-06-26T07:25:33.353Z,164.00
2019-06-26T07:26:33.537Z,168.00
2019-06-26T07:28:26.348Z,168.00
2019-06-26T07:29:26.491Z,172.00
2019-06-26T07:31:19.308Z,168.00
2019-06-26T07:32:19.245Z,176.00
2019-06-26T07:34:11.433Z,176.00
2019-06-26T07:35:11.580Z,180.00
2019-06-26T07:37:04.362Z,180.00
2019-06-26T07:38:04.536Z,180.00
2019-06-26T07:40:01.503Z,180.00
2019-06-26T07:40:57.283Z,184.00
2019-06-26T07:42:50.315Z,184.00
2019-06-26T07:43:50.237Z,184.00
2019-06-26T07:45:43.227Z,180.00
2019-06-26T07:46:43.192Z,184.00
2019-06-26T07:48:36.314Z,188.00
2019-06-26T07:49:36.254Z,184.00
2019-06-26T07:51:29.552Z,188.00
2019-06-26T07:52:29.517Z,192.00
2019-06-26T07:54:22.646Z,188.00
2019-06-26T07:55:22.577Z,192.00
2019-06-26T07:57:15.615Z,192.00
2019-06-26T07:58:15.531Z,192.00
2019-06-26T08:00:08.657Z,188.00
2019-06-26T08:01:08.494Z,188.00
2019-06-26T08:03:04.315Z,192.00
2019-06-26T08:04:01.664Z,196.00
2019-06-26T08:05:54.459Z,196.00
2019-06-26T08:06:54.516Z,196.00
2019-06-26T08:08:47.338Z,196.00
2019-06-26T08:09:47.270Z,196.00
2019-06-26T08:11:39.418Z,200.00
2019-06-26T08:12:39.610Z,204.00
2019-06-26T08:14:33.334Z,204.00
2019-06-26T08:15:33.501Z,200.00
2019-06-26T08:17:26.402Z,204.00
2019-06-26T08:18:26.335Z,204.00
2019-06-26T08:20:19.312Z,208.00
2019-06-26T08:21:19.282Z,204.00
2019-06-26T08:23:12.301Z,208.00
2019-06-26T08:24:12.238Z,204.00
2019-06-26T08:26:06.152Z,208.00
2019-06-26T08:27:06.132Z,208.00
2019-06-26T08:29:00.070Z,200.00
2019-06-26T08:30:00.208Z,204.00
2019-06-26T08:31:53.127Z,212.00
2019-06-26T08:32:53.293Z,208.00
2019-06-26T08:34:46.074Z,208.00
2019-06-26T08:35:46.018Z,200.00
2019-06-26T08:37:40.053Z,204.00
2019-06-26T08:38:39.988Z,204.00
2019-06-26T08:40:33.906Z,212.00
2019-06-26T08:41:33.869Z,208.00
2019-06-26T08:43:30.894Z,212.00
2019-06-26T08:44:27.034Z,212.00
2019-06-26T08:46:19.823Z,212.00
2019-06-26T08:47:19.996Z,208.00
2019-06-26T08:49:24.816Z,212.00
2019-06-26T08:50:13.661Z,212.00
2019-06-26T08:52:07.598Z,212.00
2019-06-26T08:53:07.540Z,212.00
2019-06-26T08:55:00.654Z,212.00
2019-06-26T08:56:00.594Z,212.00
2019-06-26T08:57:53.603Z,216.00
2019-06-26T08:58:53.556Z,212.00
2019-06-26T09:00:46.569Z,196.00
2019-06-26T09:01:46.504Z,192.00
2019-06-26T09:03:42.126Z,196.00
2019-06-26T09:04:39.876Z,196.00
2019-06-26T09:06:32.652Z,196.00
2019-06-26T09:07:32.832Z,196.00
2019-06-26T09:09:25.735Z,196.00
2019-06-26T09:10:25.690Z,200.00
2019-06-26T09:12:18.687Z,196.00
2019-06-26T09:13:18.635Z,200.00
2019-06-26T09:15:11.665Z,200.00
2019-06-26T09:16:11.593Z,196.00
2019-06-26T09:18:04.600Z,200.00
2019-06-26T09:19:04.559Z,200.00
2019-06-26T09:20:57.583Z,204.00
2019-06-26T09:21:57.505Z,204.00
2019-06-26T09:23:50.508Z,200.00
2019-06-26T09:24:50.465Z,200.00
2019-06-26T09:26:43.686Z,204.00
2019-06-26T09:27:43.621Z,204.00
2019-06-26T09:29:36.655Z,204.00
2019-06-26T09:30:36.576Z,204.00
2019-06-26T09:32:29.600Z,204.00
2019-06-26T09:33:32.229Z,204.00
2019-06-26T09:35:22.529Z,208.00
2019-06-26T09:36:22.495Z,204.00
2019-06-26T09:38:15.616Z,208.00
2019-06-26T09:39:15.768Z,208.00
2019-06-26T09:41:08.648Z,208.00
2019-06-26T09:42:08.632Z,208.00
2019-06-26T09:44:01.730Z,208.00
2019-06-26T09:45:02.027Z,208.00
2019-06-26T09:46:54.691Z,208.00
2019-06-26T09:47:54.631Z,208.00
2019-06-26T09:49:47.650Z,208.00
2019-06-26T09:50:47.582Z,208.00
2019-06-26T09:52:41.496Z,208.00
2019-06-26T09:53:46.894Z,208.00
2019-06-26T09:55:35.500Z,208.00
2019-06-26T09:56:35.560Z,208.00
2019-06-26T09:58:28.631Z,212.00
2019-06-26T09:59:28.597Z,212.00
2019-06-26T10:01:21.620Z,212.00
2019-06-26T10:02:21.685Z,208.00
2019-06-26T10:04:14.588Z,208.00
2019-06-26T10:05:14.508Z,208.00
2019-06-26T10:07:07.532Z,212.00
2019-06-26T10:08:07.726Z,212.00
2019-06-26T10:10:01.388Z,216.00
2019-06-26T10:11:01.679Z,212.00
2019-06-26T10:12:54.383Z,212.00
2019-06-26T10:13:54.317Z,212.00
2019-06-26T10:15:47.331Z,208.00
2019-06-26T10:16:47.265Z,204.00
2019-06-26T10:18:40.279Z,212.00
2019-06-26T10:19:40.445Z,216.00
2019-06-26T10:21:33.306Z,212.00
2019-06-26T10:22:33.488Z,208.00
2019-06-26T10:24:26.299Z,212.00
2019-06-26T10:25:26.230Z,208.00
2019-06-26T10:27:20.191Z,208.00
2019-06-26T10:28:20.124Z,208.00
2019-06-26T10:30:13.201Z,208.00
2019-06-26T10:31:13.386Z,208.00
2019-06-26T10:33:07.106Z,216.00
2019-06-26T10:34:09.964Z,212.00
2019-06-26T10:36:00.069Z,208.00
2019-06-26T10:37:00.001Z,212.00
2019-06-26T10:38:52.989Z,212.00
2019-06-26T10:39:53.162Z,208.00
2019-06-26T10:41:45.978Z,208.00
2019-06-26T10:42:46.122Z,204.00
2019-06-26T10:44:39.138Z,208.00
2019-06-26T10:45:39.069Z,204.00
2019-06-26T10:47:32.206Z,212.00
2019-06-26T10:48:32.350Z,212.00
2019-06-26T10:50:26.044Z,216.00
2019-06-26T10:51:26.331Z,216.00
2019-06-26T10:53:19.130Z,212.00
2019-06-26T10:54:19.066Z,212.00
2019-06-26T10:56:12.056Z,212.00
2019-06-26T10:57:12.024Z,208.00
2019-06-26T10:59:05.964Z,212.00
2019-06-26T11:00:06.210Z,212.00
2019-06-26T11:01:58.997Z,208.00
2019-06-26T11:02:58.957Z,212.00
2019-06-26T11:04:51.994Z,212.00
2019-06-26T11:05:51.955Z,208.00
2019-06-26T11:07:44.933Z,212.00
2019-06-26T11:08:44.869Z,208.00
2019-06-26T11:10:38.021Z,208.00
2019-06-26T11:11:37.937Z,204.00
2019-06-26T11:13:31.852Z,204.00
2019-06-26T11:14:31.807Z,208.00
2019-06-26T11:16:25.797Z,204.00
2019-06-26T11:17:25.686Z,204.00
2019-06-26T11:19:18.682Z,208.00
2019-06-26T11:20:18.641Z,208.00
2019-06-26T11:22:11.770Z,208.00
2019-06-26T11:23:11.701Z,212.00
2019-06-26T11:25:04.684Z,212.00
2019-06-26T11:26:04.656Z,212.00
2019-06-26T11:27:58.599Z,208.00
2019-06-26T11:28:58.534Z,208.00
2019-06-26T11:30:51.582Z,212.00
2019-06-26T11:31:51.488Z,212.00
2019-06-26T11:33:44.491Z,204.00
2019-06-26T11:34:44.446Z,208.00
2019-06-26T11:36:38.393Z,212.00
2019-06-26T11:37:38.548Z,212.00
2019-06-26T11:39:32.255Z,204.00
2019-06-26T11:40:32.409Z,204.00
2019-06-26T11:42:25.295Z,208.00
2019-06-26T11:43:25.262Z,212.00
2019-06-26T11:45:18.403Z,208.00
2019-06-26T11:46:18.316Z,208.00
2019-06-26T11:48:11.410Z,208.00
2019-06-26T11:49:11.606Z,208.00
2019-06-26T11:51:04.404Z,212.00
2019-06-26T11:52:04.545Z,212.00
2019-06-26T11:53:59.088Z,216.00
2019-06-26T11:55:02.712Z,212.00
2019-06-26T11:56:52.145Z,212.00
2019-06-26T11:57:52.092Z,208.00
2019-06-26T11:59:46.135Z,204.00
2019-06-26T12:00:46.282Z,196.00
2019-06-26T12:02:40.079Z,200.00
2019-06-26T12:03:40.047Z,208.00
2019-06-26T12:05:33.065Z,212.00
2019-06-26T12:06:33.008Z,204.00
2019-06-26T12:08:25.993Z,200.00
2019-06-26T12:09:26.168Z,200.00
2019-06-26T12:11:18.972Z,200.00
2019-06-26T12:12:19.166Z,208.00
2019-06-26T12:14:11.908Z,200.00
2019-06-26T12:15:11.907Z,204.00
2019-06-26T12:17:04.899Z,208.00
2019-06-26T12:18:05.035Z,216.00
2019-06-26T12:19:57.890Z,204.00
2019-06-26T12:20:58.000Z,208.00
2019-06-26T12:22:51.701Z,204.00
2019-06-26T12:23:51.871Z,204.00
2019-06-26T12:25:44.683Z,212.00
2019-06-26T12:26:44.854Z,212.00
2019-06-26T12:28:37.705Z,208.00
2019-06-26T12:29:37.676Z,208.00
2019-06-26T12:31:30.703Z,208.00
2019-06-26T12:32:30.638Z,204.00
2019-06-26T12:34:23.620Z,208.00
2019-06-26T12:35:23.587Z,212.00
2019-06-26T12:37:17.525Z,208.00
2019-06-26T12:38:17.465Z,208.00
2019-06-26T12:40:10.557Z,208.00
2019-06-26T12:41:10.530Z,204.00
2019-06-26T12:43:03.548Z,200.00
2019-06-26T12:44:03.485Z,200.00
2019-06-26T12:45:57.535Z,200.00
2019-06-26T12:46:57.468Z,196.00
2019-06-26T12:48:50.457Z,196.00
2019-06-26T12:49:50.632Z,200.00
2019-06-26T12:51:43.437Z,200.00
2019-06-26T12:52:43.581Z,192.00
2019-06-26T12:54:37.287Z,192.00
2019-06-26T12:55:37.462Z,192.00
2019-06-26T12:57:30.270Z,188.00
2019-06-26T12:58:30.210Z,192.00
2019-06-26T13:00:23.302Z,188.00
2019-06-26T13:01:25.179Z,188.00
2019-06-26T13:03:17.241Z,180.00
2019-06-26T13:04:17.149Z,184.00
2019-06-26T13:06:10.336Z,188.00
2019-06-26T13:07:10.310Z,188.00
2019-06-26T13:09:03.333Z,184.00
2019-06-26T13:10:07.220Z,184.00
2019-06-26T13:11:57.192Z,176.00
2019-06-26T13:12:57.384Z,176.00
2019-06-26T13:14:51.047Z,180.00
2019-06-26T13:15:51.442Z,176.00
2019-06-26T13:17:44.241Z,180.00
2019-06-26T13:18:44.216Z,180.00
2019-06-26T13:20:52.323Z,176.00
2019-06-26T13:21:38.054Z,180.00
2019-06-26T13:23:31.174Z,180.00
2019-06-26T13:24:31.152Z,180.00
2019-06-26T13:26:24.102Z,180.00
2019-06-26T13:27:24.072Z,176.00
2019-06-26T13:29:17.100Z,172.00
2019-06-26T13:30:17.252Z,172.00
2019-06-26T13:32:10.013Z,176.00
2019-06-26T13:33:10.191Z,180.00
2019-06-26T13:35:03.007Z,176.00
2019-06-26T13:36:03.149Z,176.00
2019-06-26T13:37:56.919Z,176.00
2019-06-26T13:38:57.127Z,172.00
2019-06-26T13:40:49.943Z,176.00
2019-06-26T13:41:49.883Z,176.00
2019-06-26T13:43:43.072Z,168.00
2019-06-26T13:44:43.036Z,172.00
2019-06-26T13:46:36.263Z,168.00
2019-06-26T13:47:36.198Z,168.00
2019-06-26T13:49:29.283Z,168.00
2019-06-26T13:50:29.277Z,168.00
2019-06-26T13:52:22.384Z,172.00
2019-06-26T13:53:22.309Z,164.00
2019-06-26T13:55:15.502Z,160.00
2019-06-26T13:56:15.471Z,164.00
2019-06-26T13:58:08.702Z,164.00
2019-06-26T13:59:08.633Z,160.00
2019-06-26T14:01:02.654Z,164.00
2019-06-26T14:02:02.616Z,160.00
2019-06-26T14:03:56.559Z,160.00
2019-06-26T14:04:56.726Z,160.00
2019-06-26T14:06:49.509Z,152.00
2019-06-26T14:07:49.677Z,152.00
2019-06-26T14:09:42.488Z,152.00
2019-06-26T14:10:42.413Z,152.00
2019-06-26T14:12:35.524Z,140.00
2019-06-26T14:13:35.673Z,148.00
2019-06-26T14:15:28.590Z,152.00
2019-06-26T14:16:29.920Z,144.00
2019-06-26T14:18:22.457Z,148.00
2019-06-26T14:19:22.398Z,144.00
2019-06-26T14:21:24.977Z,144.00
2019-06-26T14:22:15.459Z,140.00
2019-06-26T14:24:08.473Z,136.00
2019-06-26T14:25:08.413Z,136.00
2019-06-26T14:27:02.393Z,132.00
2019-06-26T14:28:02.292Z,136.00
2019-06-26T14:29:55.312Z,136.00
2019-06-26T14:30:55.253Z,136.00
2019-06-26T14:32:49.216Z,136.00
2019-06-26T14:33:49.127Z,132.00
2019-06-26T14:35:42.125Z,128.00
2019-06-26T14:36:42.083Z,128.00
2019-06-26T14:38:36.122Z,120.00
2019-06-26T14:39:36.060Z,120.00
2019-06-26T14:41:29.052Z,116.00
2019-06-26T14:42:29.017Z,116.00
2019-06-26T14:44:22.957Z,120.00
2019-06-26T14:45:22.893Z,120.00
2019-06-26T14:47:16.979Z,116.00
2019-06-26T14:48:16.783Z,116.00
2019-06-26T14:50:10.713Z,108.00
2019-06-26T14:51:10.649Z,104.00
2019-06-26T14:53:03.871Z,100.00
2019-06-26T14:54:03.808Z,100.00
2019-06-26T14:55:56.799Z,100.00
2019-06-26T14:56:56.768Z,100.00
2019-06-26T14:58:49.782Z,96.00
2019-06-26T14:59:49.722Z,92.00
2019-06-26T15:01:43.636Z,92.00
2019-06-26T15:02:43.598Z,92.00
2019-06-26T15:04:36.623Z,100.00
2019-06-26T15:05:36.554Z,100.00
2019-06-26T15:07:30.490Z,96.00
2019-06-26T15:08:30.643Z,96.00
2019-06-26T15:10:23.461Z,92.00
2019-06-26T15:11:23.600Z,84.00
2019-06-26T15:13:17.310Z,84.00
2019-06-26T15:14:17.476Z,84.00
2019-06-26T15:16:11.219Z,80.00
2019-06-26T15:17:11.353Z,80.00
2019-06-26T15:19:05.186Z,76.00
2019-06-26T15:20:05.124Z,76.00
2019-06-26T15:21:59.010Z,72.00
2019-06-26T15:22:58.959Z,72.00
2019-06-26T15:24:51.116Z,72.00
2019-06-26T15:25:51.041Z,72.00
2019-06-26T15:27:44.129Z,68.00
2019-06-26T15:28:44.097Z,72.00
2019-06-26T15:30:37.119Z,72.00
2019-06-26T15:31:37.053Z,72.00
2019-06-26T15:33:30.043Z,72.00
2019-06-26T15:34:30.023Z,68.00
2019-06-26T15:36:23.131Z,68.00
2019-06-26T15:37:23.065Z,64.00
2019-06-26T15:39:16.055Z,60.00
2019-06-26T15:40:16.025Z,64.00
2019-06-26T15:42:09.964Z,60.00
2019-06-26T15:43:09.901Z,60.00
2019-06-26T15:45:03.020Z,56.00
2019-06-26T15:46:02.968Z,56.00
2019-06-26T15:47:56.907Z,56.00
2019-06-26T15:48:56.842Z,56.00
2019-06-26T15:50:49.824Z,52.00
2019-06-26T15:51:49.797Z,52.00
2019-06-26T15:53:42.812Z,52.00
2019-06-26T15:54:42.956Z,52.00
2019-06-26T15:56:35.738Z,48.00
2019-06-26T15:57:35.915Z,48.00
2019-06-26T15:59:31.178Z,48.00
2019-06-26T16:00:29.076Z,48.00
2019-06-26T16:02:21.884Z,52.00
2019-06-26T16:03:22.032Z,48.00
2019-06-26T16:05:14.851Z,48.00
2019-06-26T16:06:15.097Z,48.00
2019-06-26T16:08:07.864Z,48.00
2019-06-26T16:09:07.837Z,48.00
2019-06-26T16:11:00.850Z,44.00
2019-06-26T16:12:00.791Z,48.00
2019-06-26T16:13:53.810Z,44.00
2019-06-26T16:14:53.959Z,44.00
2019-06-26T16:16:46.847Z,44.00
2019-06-26T16:17:47.018Z,44.00
2019-06-26T16:19:40.746Z,40.00
2019-06-26T16:20:40.897Z,40.00
2019-06-26T16:22:33.697Z,44.00
2019-06-26T16:23:33.852Z,40.00
2019-06-26T16:25:26.668Z,44.00
2019-06-26T16:26:26.814Z,40.00
2019-06-26T16:28:20.526Z,40.00
2019-06-26T16:29:20.481Z,40.00
2019-06-26T16:31:14.422Z,36.00
2019-06-26T16:32:14.352Z,36.00
2019-06-26T16:34:07.451Z,40.00
2019-06-26T16:35:07.413Z,40.00
2019-06-26T16:37:00.435Z,40.00
2019-06-26T16:38:00.579Z,44.00
2019-06-26T16:39:53.393Z,40.00
2019-06-26T16:40:53.533Z,44.00
2019-06-26T16:42:46.319Z,40.00
2019-06-26T16:43:46.289Z,40.00
2019-06-26T16:45:39.300Z,40.00
2019-06-26T16:46:39.235Z,36.00
2019-06-26T16:48:32.270Z,36.00
2019-06-26T16:49:32.406Z,36.00
2019-06-26T16:51:25.184Z,36.00
2019-06-26T16:52:25.420Z,36.00
2019-06-26T16:54:18.171Z,36.00
2019-06-26T16:55:18.104Z,36.00
2019-06-26T16:57:11.124Z,36.00
2019-06-26T16:58:11.064Z,36.00
2019-06-26T17:00:09.386Z,36.00
2019-06-26T17:01:04.020Z,32.00
2019-06-26T17:02:57.037Z,32.00
2019-06-26T17:03:57.203Z,32.00
2019-06-26T17:05:50.915Z,32.00
2019-06-26T17:06:51.067Z,32.00
2019-06-26T17:08:44.793Z,28.00
2019-06-26T17:09:44.725Z,28.00
2019-06-26T17:11:37.849Z,32.00
2019-06-26T17:12:37.682Z,28.00
2019-06-26T17:14:30.703Z,28.00
2019-06-26T17:15:30.868Z,28.00
2019-06-26T17:17:23.628Z,28.00
2019-06-26T17:18:23.809Z,32.00
2019-06-26T17:20:16.613Z,28.00
2019-06-26T17:21:16.552Z,28.00
2019-06-26T17:23:09.654Z,28.00
2019-06-26T17:24:09.827Z,28.00
2019-06-26T17:26:02.643Z,28.00
2019-06-26T17:27:02.780Z,24.00
2019-06-26T17:28:55.564Z,24.00
2019-06-26T17:29:55.779Z,28.00
2019-06-26T17:31:48.539Z,24.00
2019-06-26T17:32:48.479Z,24.00
2019-06-26T17:34:41.473Z,20.00
2019-06-26T17:35:41.441Z,24.00
2019-06-26T17:37:34.481Z,20.00
2019-06-26T17:38:34.400Z,20.00
2019-06-26T17:40:28.431Z,24.00
2019-06-26T17:41:28.371Z,20.00
2019-06-26T17:43:21.568Z,20.00
2019-06-26T17:44:21.531Z,20.00
2019-06-26T17:46:15.581Z,24.00
2019-06-26T17:47:15.512Z,20.00
2019-06-26T17:49:08.530Z,20.00
2019-06-26T17:50:08.470Z,20.00
2019-06-26T17:52:01.491Z,20.00
2019-06-26T17:53:01.421Z,20.00
2019-06-26T17:54:55.336Z,24.00
2019-06-26T17:55:55.526Z,20.00
2019-06-26T17:57:48.311Z,20.00
2019-06-26T17:58:48.253Z,20.00
2019-06-26T18:00:42.177Z,16.00
2019-06-26T18:01:42.136Z,16.00
2019-06-26T18:03:35.259Z,20.00
2019-06-26T18:04:35.199Z,20.00
2019-06-26T18:06:29.109Z,20.00
2019-06-26T18:07:29.073Z,16.00
2019-06-26T18:09:22.095Z,16.00
2019-06-26T18:10:22.029Z,16.00
2019-06-26T18:12:14.949Z,16.00
2019-06-26T18:13:14.883Z,16.00
2019-06-26T18:15:07.974Z,16.00
2019-06-26T18:16:07.939Z,16.00
2019-06-26T18:18:00.958Z,16.00
2019-06-26T18:19:00.894Z,12.00
2019-06-26T18:20:53.915Z,16.00
2019-06-26T18:21:53.852Z,16.00
2019-06-26T18:23:46.885Z,16.00
2019-06-26T18:24:46.824Z,16.00
2019-06-26T18:26:39.837Z,12.00